createdAt,value
2023-05-07T00:02:26.445Z,70.41
2023-05-07T00:04:53.048Z,70.35
2023-05-07T00:07:19.445Z,70.28
2023-05-07T00:09:45.800Z,70.41
2023-05-07T00:12:12.156Z,70.37
2023-05-07T00:14:38.613Z,70.42
2023-05-07T00:17:05.049Z,70.37
2023-05-07T00:19:31.403Z,70.30
2023-05-07T00:21:57.854Z,70.30
2023-05-07T00:24:24.208Z,70.22
2023-05-07T00:26:51.053Z,70.29
2023-05-07T00:29:17.427Z,70.26
2023-05-07T00:31:43.839Z,70.43
2023-05-07T00:34:10.286Z,70.29
2023-05-07T00:36:36.641Z,70.22
2023-05-07T00:39:04.407Z,70.21
2023-05-07T00:41:33.688Z,70.26
2023-05-07T00:44:00.059Z,70.50
2023-05-07T00:46:26.875Z,70.59
2023-05-07T00:48:54.498Z,70.58
2023-05-07T00:51:21.024Z,70.77
2023-05-07T00:53:47.588Z,70.85
2023-05-07T00:56:14.054Z,70.62
2023-05-07T00:58:41.651Z,70.76
2023-05-07T01:01:08.532Z,70.77
2023-05-07T01:03:34.960Z,70.89
2023-05-07T01:06:03.418Z,70.84
2023-05-07T01:08:31.376Z,70.78
2023-05-07T01:10:58.270Z,71.04
2023-05-07T01:13:25.493Z,70.79
2023-05-07T01:15:52.240Z,70.92
2023-05-07T01:18:18.934Z,70.95
2023-05-07T01:20:46.097Z,71.07
2023-05-07T01:23:13.254Z,71.24
2023-05-07T01:25:39.770Z,71.19
2023-05-07T01:28:07.313Z,71.14
2023-05-07T01:30:37.193Z,71.35
2023-05-07T01:33:14.455Z,71.16
2023-05-07T01:35:48.299Z,71.07
2023-05-07T01:38:15.222Z,71.27
2023-05-07T01:40:42.263Z,71.03
2023-05-07T01:43:09.807Z,71.13
2023-05-07T01:45:37.301Z,71.33
2023-05-07T01:48:04.634Z,71.48
2023-05-07T01:50:32.670Z,71.49
2023-05-07T01:52:59.129Z,71.66
2023-05-07T01:55:25.638Z,71.47
2023-05-07T01:57:52.010Z,71.83
2023-05-07T02:00:19.908Z,71.58
2023-05-07T02:02:46.563Z,71.59
2023-05-07T02:05:28.391Z,71.58
2023-05-07T02:08:10.645Z,71.69
2023-05-07T02:10:37.519Z,71.90
2023-05-07T02:13:05.962Z,71.77
2023-05-07T02:15:32.384Z,71.76
2023-05-07T02:18:10.050Z,71.68
2023-05-07T02:20:36.687Z,71.81
2023-05-07T02:23:03.258Z,71.72
2023-05-07T02:25:31.013Z,71.65
2023-05-07T02:27:57.877Z,71.81
2023-05-07T02:30:33.997Z,71.72
2023-05-07T02:33:00.552Z,71.85
2023-05-07T02:35:27.475Z,71.70
2023-05-07T02:37:54.008Z,71.81
2023-05-07T02:40:21.094Z,71.82
2023-05-07T02:42:47.608Z,71.91
2023-05-07T02:45:15.293Z,72.03
2023-05-07T02:47:42.606Z,71.96
2023-05-07T02:50:09.566Z,71.81
2023-05-07T02:52:36.368Z,71.92
2023-05-07T02:55:03.468Z,71.53
2023-05-07T02:57:29.913Z,71.79
2023-05-07T02:59:58.795Z,71.93
2023-05-07T03:02:25.719Z,72.03
2023-05-07T03:04:52.670Z,71.60
2023-05-07T03:07:19.003Z,71.57
2023-05-07T03:09:45.443Z,71.70
2023-05-07T03:12:12.205Z,71.77
2023-05-07T03:14:38.541Z,71.74
2023-05-07T03:17:04.962Z,72.09
2023-05-07T03:19:31.618Z,71.90
2023-05-07T03:21:58.381Z,71.94
2023-05-07T03:24:24.704Z,71.80
2023-05-07T03:26:51.013Z,71.88
2023-05-07T03:29:17.402Z,71.95
2023-05-07T03:31:44.631Z,71.80
2023-05-07T03:34:11.057Z,71.87
2023-05-07T03:36:37.609Z,71.59
2023-05-07T03:39:11.262Z,72.22
2023-05-07T03:41:40.167Z,72.08
2023-05-07T03:44:06.887Z,72.02
2023-05-07T03:46:34.341Z,72.03
2023-05-07T03:49:01.157Z,71.92
2023-05-07T03:51:27.952Z,71.84
2023-05-07T03:53:54.512Z,71.85
2023-05-07T03:56:22.080Z,71.97
2023-05-07T03:58:55.058Z,71.94
2023-05-07T04:01:21.514Z,72.03
2023-05-07T04:03:48.467Z,71.91
2023-05-07T04:06:16.833Z,71.79
2023-05-07T04:08:45.199Z,72.06
2023-05-07T04:11:11.774Z,71.94
2023-05-07T04:13:38.141Z,71.81
2023-05-07T04:16:06.881Z,71.79
2023-05-07T04:18:35.590Z,71.83
2023-05-07T04:21:02.096Z,71.95
2023-05-07T04:23:28.433Z,72.12
2023-05-07T04:25:56.886Z,72.20
2023-05-07T04:28:29.406Z,72.22
2023-05-07T04:30:55.856Z,72.15
2023-05-07T04:33:22.721Z,71.88
2023-05-07T04:35:50.329Z,72.03
2023-05-07T04:38:17.364Z,72.09
2023-05-07T04:40:44.652Z,72.38
2023-05-07T04:43:15.051Z,72.56
2023-05-07T04:45:46.681Z,72.45
2023-05-07T04:48:15.485Z,72.53
2023-05-07T04:50:42.214Z,72.61
2023-05-07T04:53:09.024Z,72.64
2023-05-07T04:55:35.525Z,72.64
2023-05-07T04:58:02.890Z,73.02
2023-05-07T05:00:32.009Z,73.18
2023-05-07T05:02:59.113Z,73.02
2023-05-07T05:05:25.543Z,72.81
2023-05-07T05:07:54.049Z,72.85
2023-05-07T05:10:24.660Z,73.00
2023-05-07T05:12:51.805Z,72.84
2023-05-07T05:15:18.511Z,72.93
2023-05-07T05:17:45.312Z,72.89
2023-05-07T05:20:12.834Z,72.69
2023-05-07T05:22:42.188Z,72.62
2023-05-07T05:25:09.205Z,72.62
2023-05-07T05:27:36.197Z,72.58
2023-05-07T05:30:02.859Z,72.63
2023-05-07T05:32:30.985Z,72.41
2023-05-07T05:34:57.670Z,72.56
2023-05-07T05:37:24.562Z,72.81
2023-05-07T05:39:51.647Z,72.66
2023-05-07T05:42:18.932Z,72.49
2023-05-07T05:44:45.399Z,72.77
2023-05-07T05:47:12.260Z,72.50
2023-05-07T05:49:38.810Z,72.36
2023-05-07T05:52:06.561Z,72.17
2023-05-07T05:54:33.742Z,72.13
2023-05-07T05:57:00.284Z,71.97
2023-05-07T05:59:27.281Z,71.92
2023-05-07T06:01:54.041Z,71.80
2023-05-07T06:04:20.437Z,71.60
2023-05-07T06:06:47.061Z,71.60
2023-05-07T06:09:13.941Z,71.53
2023-05-07T06:11:43.361Z,70.60
2023-05-07T06:14:10.963Z,70.74
2023-05-07T06:16:38.972Z,70.56
2023-05-07T06:19:06.913Z,70.02
2023-05-07T06:21:33.912Z,69.73
2023-05-07T06:24:00.411Z,69.72
2023-05-07T06:26:27.277Z,69.40
2023-05-07T06:28:53.743Z,69.65
2023-05-07T06:31:21.530Z,69.36
2023-05-07T06:33:56.288Z,69.26
2023-05-07T06:36:25.560Z,69.39
2023-05-07T06:38:53.794Z,69.56
2023-05-07T06:41:21.499Z,69.00
2023-05-07T06:43:47.935Z,69.08
2023-05-07T06:46:28.052Z,68.58
2023-05-07T06:48:54.500Z,68.89
2023-05-07T06:51:20.892Z,68.85
2023-05-07T06:53:47.356Z,68.70
2023-05-07T06:56:13.790Z,68.42
2023-05-07T06:58:40.208Z,68.44
2023-05-07T07:01:07.535Z,68.71
2023-05-07T07:03:35.170Z,68.43
2023-05-07T07:06:03.019Z,68.25
2023-05-07T07:08:29.823Z,68.10
2023-05-07T07:10:56.553Z,68.06
2023-05-07T07:13:23.422Z,68.03
2023-05-07T07:15:50.099Z,67.53
2023-05-07T07:18:17.748Z,66.73
2023-05-07T07:20:46.235Z,66.86
2023-05-07T07:23:13.695Z,67.17
2023-05-07T07:25:40.242Z,66.81
2023-05-07T07:28:07.105Z,67.20
2023-05-07T07:30:33.583Z,67.24
2023-05-07T07:33:03.463Z,67.47
2023-05-07T07:35:33.848Z,67.34
2023-05-07T07:38:00.608Z,66.45
2023-05-07T07:40:27.033Z,66.51
2023-05-07T07:42:55.220Z,66.46
2023-05-07T07:45:22.506Z,66.11
2023-05-07T07:47:50.667Z,66.16
2023-05-07T07:50:31.677Z,65.94
2023-05-07T07:53:04.434Z,65.91
2023-05-07T07:55:32.041Z,65.48
2023-05-07T07:58:00.754Z,64.84
2023-05-07T08:00:27.152Z,64.77
2023-05-07T08:02:56.449Z,65.28
2023-05-07T08:05:27.923Z,65.07
2023-05-07T08:07:55.086Z,64.87
2023-05-07T08:10:26.406Z,63.57
2023-05-07T08:12:58.941Z,63.57
2023-05-07T08:15:25.400Z,63.92
2023-05-07T08:17:51.957Z,63.47
2023-05-07T08:20:18.805Z,63.41
2023-05-07T08:22:45.350Z,64.23
2023-05-07T08:25:11.941Z,64.10
2023-05-07T08:27:38.404Z,64.03
2023-05-07T08:30:05.745Z,63.88
2023-05-07T08:32:32.272Z,63.73
2023-05-07T08:34:58.742Z,63.57
2023-05-07T08:37:25.314Z,63.68
2023-05-07T08:39:51.737Z,62.95
2023-05-07T08:42:24.710Z,62.81
2023-05-07T08:44:54.121Z,62.06
2023-05-07T08:47:24.182Z,61.83
2023-05-07T08:49:52.663Z,61.31
2023-05-07T08:52:20.888Z,61.60
2023-05-07T08:54:47.497Z,61.97
2023-05-07T08:57:14.221Z,61.48
2023-05-07T08:59:41.847Z,61.11
2023-05-07T09:02:11.442Z,62.13
2023-05-07T09:04:39.031Z,62.04
2023-05-07T09:07:06.335Z,62.58
2023-05-07T09:09:36.328Z,62.66
2023-05-07T09:12:04.804Z,63.20
2023-05-07T09:14:33.722Z,60.97
2023-05-07T09:17:01.125Z,61.13
2023-05-07T09:19:28.468Z,61.44
2023-05-07T09:22:05.715Z,60.97
2023-05-07T09:24:48.662Z,61.14
2023-05-07T09:27:15.807Z,59.68
2023-05-07T09:29:45.250Z,58.76
2023-05-07T09:32:13.174Z,59.18
2023-05-07T09:34:39.767Z,59.47
2023-05-07T09:37:08.384Z,59.22
2023-05-07T09:39:42.384Z,59.28
2023-05-07T09:42:09.829Z,59.30
2023-05-07T09:44:37.176Z,58.34
2023-05-07T09:47:07.018Z,58.31
2023-05-07T09:49:43.120Z,58.75
2023-05-07T09:52:14.074Z,58.86
2023-05-07T09:54:48.334Z,57.74
2023-05-07T09:57:18.940Z,57.11
2023-05-07T09:59:50.201Z,56.89
2023-05-07T10:02:20.688Z,57.23
2023-05-07T10:04:51.612Z,57.16
2023-05-07T10:07:23.697Z,56.42
2023-05-07T10:09:54.915Z,57.01
2023-05-07T10:12:39.770Z,56.61
2023-05-07T10:15:12.786Z,55.87
2023-05-07T10:17:42.477Z,54.83
2023-05-07T10:20:10.769Z,54.65
2023-05-07T10:22:44.024Z,54.25
2023-05-07T10:25:18.741Z,53.63
2023-05-07T10:27:49.098Z,52.92
2023-05-07T10:30:15.754Z,54.25
2023-05-07T10:32:51.630Z,54.23
2023-05-07T10:35:30.393Z,53.94
2023-05-07T10:37:57.816Z,52.83
2023-05-07T10:40:27.001Z,52.44
2023-05-07T10:43:00.444Z,52.61
2023-05-07T10:45:29.782Z,52.53
2023-05-07T10:48:20.861Z,52.66
2023-05-07T10:51:19.815Z,52.19
2023-05-07T10:53:46.686Z,51.35
2023-05-07T10:56:18.479Z,51.55
2023-05-07T10:58:50.704Z,50.77
2023-05-07T11:02:08.502Z,50.46
2023-05-07T11:05:19.594Z,50.07
2023-05-07T11:07:56.242Z,49.45
2023-05-07T11:10:54.975Z,49.90
2023-05-07T11:13:47.103Z,50.28
2023-05-07T11:16:30.951Z,50.92
2023-05-07T11:19:05.576Z,49.12
2023-05-07T11:21:42.556Z,49.88
2023-05-07T11:24:19.929Z,48.37
2023-05-07T11:26:54.346Z,49.13
2023-05-07T11:29:23.364Z,48.94
2023-05-07T11:31:55.973Z,49.44
2023-05-07T11:34:27.187Z,49.79
2023-05-07T11:36:56.701Z,49.88
2023-05-07T11:39:36.769Z,48.63
2023-05-07T11:42:03.401Z,48.66
2023-05-07T11:44:46.860Z,47.70
2023-05-07T11:47:18.820Z,47.44
2023-05-07T11:49:48.828Z,46.04
2023-05-07T11:52:15.862Z,45.88
2023-05-07T11:54:42.270Z,47.28
2023-05-07T11:57:15.667Z,47.07
2023-05-07T11:59:42.109Z,45.93
2023-05-07T12:02:09.151Z,45.76
2023-05-07T12:04:35.705Z,46.12
2023-05-07T12:07:02.097Z,47.43
2023-05-07T12:09:28.470Z,46.10
2023-05-07T12:11:56.957Z,46.87
2023-05-07T12:14:23.287Z,47.13
2023-05-07T12:16:49.784Z,46.50
2023-05-07T12:19:16.280Z,47.84
2023-05-07T12:21:42.904Z,47.39
2023-05-07T12:24:09.278Z,48.94
2023-05-07T12:26:39.298Z,47.60
2023-05-07T12:29:05.742Z,46.55
2023-05-07T12:31:32.255Z,46.79
2023-05-07T12:33:58.667Z,45.87
2023-05-07T12:36:25.691Z,48.11
2023-05-07T12:38:52.231Z,47.00
2023-05-07T12:41:19.220Z,48.43
2023-05-07T12:43:46.550Z,47.72
2023-05-07T12:46:14.683Z,46.81
2023-05-07T12:48:46.438Z,47.11
2023-05-07T12:51:14.477Z,47.64
2023-05-07T12:53:44.870Z,48.19
2023-05-07T12:56:11.362Z,48.16
2023-05-07T12:58:37.972Z,47.92
2023-05-07T13:01:10.686Z,47.12
2023-05-07T13:03:38.984Z,46.67
2023-05-07T13:06:10.290Z,47.15
2023-05-07T13:08:38.647Z,47.85
2023-05-07T13:11:05.783Z,48.32
2023-05-07T13:13:33.306Z,47.75
2023-05-07T13:16:01.184Z,48.05
2023-05-07T13:18:28.189Z,48.71
2023-05-07T13:20:54.857Z,49.15
2023-05-07T13:23:21.442Z,48.87
2023-05-07T13:25:49.092Z,49.43
2023-05-07T13:28:17.037Z,49.31
2023-05-07T13:30:43.724Z,49.49
2023-05-07T13:33:10.381Z,49.49
2023-05-07T13:35:36.885Z,47.64
2023-05-07T13:38:03.353Z,47.64
2023-05-07T13:40:29.800Z,47.80
2023-05-07T13:42:59.370Z,48.42
2023-05-07T13:45:30.394Z,48.64
2023-05-07T13:47:58.018Z,49.27
2023-05-07T13:50:24.669Z,49.37
2023-05-07T13:52:53.976Z,49.08
2023-05-07T13:55:25.302Z,48.89
2023-05-07T13:57:59.229Z,49.43
2023-05-07T14:00:27.339Z,50.11
2023-05-07T14:02:54.598Z,50.11
2023-05-07T14:05:21.209Z,50.33
2023-05-07T14:07:48.614Z,50.60
2023-05-07T14:10:15.422Z,50.84
2023-05-07T14:12:42.194Z,51.31
2023-05-07T14:15:09.119Z,51.35
2023-05-07T14:17:35.665Z,51.69
2023-05-07T14:20:02.174Z,51.59
2023-05-07T14:22:28.583Z,52.08
2023-05-07T14:25:05.833Z,52.85
2023-05-07T14:27:32.832Z,53.96
2023-05-07T14:29:59.312Z,55.33
2023-05-07T14:32:25.775Z,56.24
2023-05-07T14:34:52.248Z,56.77
2023-05-07T14:37:20.676Z,57.91
2023-05-07T14:39:49.784Z,58.43
2023-05-07T14:42:16.741Z,58.65
2023-05-07T14:44:43.236Z,58.99
2023-05-07T14:47:09.755Z,59.90
2023-05-07T14:49:36.448Z,59.98
2023-05-07T14:52:03.347Z,60.42
2023-05-07T14:54:29.933Z,60.57
2023-05-07T14:56:56.751Z,60.83
2023-05-07T14:59:25.750Z,61.10
2023-05-07T15:01:52.246Z,61.42
2023-05-07T15:04:18.919Z,61.58
2023-05-07T15:06:45.398Z,61.77
2023-05-07T15:09:11.796Z,62.36
2023-05-07T15:11:38.293Z,62.58
2023-05-07T15:14:04.872Z,62.86
2023-05-07T15:16:31.341Z,62.91
2023-05-07T15:18:57.750Z,63.38
2023-05-07T15:21:24.313Z,63.43
2023-05-07T15:23:50.737Z,63.53
2023-05-07T15:26:17.102Z,63.79
2023-05-07T15:28:43.531Z,63.84
2023-05-07T15:31:10.079Z,63.97
2023-05-07T15:33:36.504Z,64.03
2023-05-07T15:36:04.090Z,64.22
2023-05-07T15:38:30.912Z,64.62
2023-05-07T15:40:57.299Z,64.47
2023-05-07T15:43:23.783Z,64.58
2023-05-07T15:45:50.323Z,64.72
2023-05-07T15:48:16.826Z,64.90
2023-05-07T15:50:43.468Z,64.79
2023-05-07T15:53:10.414Z,65.17
2023-05-07T15:55:36.842Z,65.19
2023-05-07T15:58:04.986Z,65.33
2023-05-07T16:00:31.354Z,65.29
2023-05-07T16:02:58.078Z,65.30
2023-05-07T16:05:24.732Z,65.10
2023-05-07T16:07:51.149Z,65.11
2023-05-07T16:10:17.579Z,65.10
2023-05-07T16:12:44.197Z,65.13
2023-05-07T16:15:11.411Z,64.91
2023-05-07T16:17:38.194Z,65.03
2023-05-07T16:20:06.381Z,65.04
2023-05-07T16:22:33.069Z,64.66
2023-05-07T16:24:59.485Z,64.54
2023-05-07T16:27:26.253Z,64.23
2023-05-07T16:29:52.830Z,64.26
2023-05-07T16:32:19.335Z,64.27
2023-05-07T16:34:46.386Z,64.31
2023-05-07T16:37:13.325Z,64.32
2023-05-07T16:39:39.820Z,63.82
2023-05-07T16:42:06.210Z,63.77
2023-05-07T16:44:32.570Z,63.82
2023-05-07T16:46:58.952Z,63.72
2023-05-07T16:49:25.361Z,63.58
2023-05-07T16:51:51.718Z,63.41
2023-05-07T16:54:18.075Z,63.12
2023-05-07T16:56:44.435Z,61.73
2023-05-07T16:59:10.927Z,61.62
2023-05-07T17:01:37.387Z,61.20
2023-05-07T17:04:03.998Z,61.38
2023-05-07T17:06:31.602Z,61.07
2023-05-07T17:08:58.240Z,61.20
2023-05-07T17:11:28.241Z,61.19
2023-05-07T17:13:54.776Z,61.26
2023-05-07T17:16:21.209Z,61.60
2023-05-07T17:18:47.584Z,61.76
2023-05-07T17:21:13.951Z,61.86
2023-05-07T17:23:40.429Z,62.04
2023-05-07T17:26:13.759Z,62.28
2023-05-07T17:28:40.219Z,62.31
2023-05-07T17:31:06.765Z,62.52
2023-05-07T17:33:33.195Z,62.50
2023-05-07T17:36:02.836Z,62.38
2023-05-07T17:38:30.426Z,62.58
2023-05-07T17:40:58.432Z,62.95
2023-05-07T17:43:25.024Z,63.25
2023-05-07T17:45:51.612Z,63.43
2023-05-07T17:48:18.367Z,63.95
2023-05-07T17:50:45.251Z,63.66
2023-05-07T17:53:12.144Z,63.71
2023-05-07T17:55:43.488Z,63.86
2023-05-07T17:58:09.966Z,64.14
2023-05-07T18:00:36.566Z,64.03
2023-05-07T18:03:03.574Z,64.16
2023-05-07T18:05:30.489Z,64.14
2023-05-07T18:07:56.991Z,64.41
2023-05-07T18:10:23.494Z,64.17
2023-05-07T18:12:49.949Z,64.32
2023-05-07T18:15:16.361Z,64.23
2023-05-07T18:17:42.793Z,64.42
2023-05-07T18:20:11.461Z,64.03
2023-05-07T18:22:38.776Z,64.34
2023-05-07T18:25:05.927Z,64.62
2023-05-07T18:27:32.322Z,64.69
2023-05-07T18:29:58.710Z,64.77
2023-05-07T18:32:25.242Z,64.89
2023-05-07T18:34:52.866Z,64.92
2023-05-07T18:37:29.990Z,64.74
2023-05-07T18:39:57.123Z,65.02
2023-05-07T18:42:23.486Z,65.03
2023-05-07T18:44:50.367Z,65.00
2023-05-07T18:47:17.115Z,64.97
2023-05-07T18:49:43.489Z,65.23
2023-05-07T18:52:09.861Z,65.24
2023-05-07T18:54:36.267Z,65.12
2023-05-07T18:57:02.963Z,65.18
2023-05-07T18:59:29.686Z,65.57
2023-05-07T19:01:56.223Z,65.32
2023-05-07T19:04:24.322Z,65.42
2023-05-07T19:06:50.780Z,65.71
2023-05-07T19:09:17.213Z,65.61
2023-05-07T19:11:43.678Z,65.66
2023-05-07T19:14:11.098Z,66.20
2023-05-07T19:16:37.755Z,66.03
2023-05-07T19:19:05.537Z,66.16
2023-05-07T19:21:32.022Z,66.06
2023-05-07T19:23:58.389Z,66.21
2023-05-07T19:26:25.005Z,66.47
2023-05-07T19:29:01.696Z,66.68
2023-05-07T19:31:39.405Z,66.74
2023-05-07T19:34:05.792Z,66.57
2023-05-07T19:36:34.370Z,66.58
2023-05-07T19:39:00.991Z,66.90
2023-05-07T19:41:28.297Z,66.66
2023-05-07T19:43:54.718Z,66.83
2023-05-07T19:46:21.203Z,67.06
2023-05-07T19:48:47.616Z,67.11
2023-05-07T19:51:14.035Z,66.95
2023-05-07T19:53:40.534Z,66.62
2023-05-07T19:56:08.415Z,66.73
2023-05-07T19:58:35.647Z,66.25
2023-05-07T20:01:03.419Z,66.05
2023-05-07T20:03:31.361Z,65.57
2023-05-07T20:05:57.947Z,65.35
2023-05-07T20:08:24.628Z,64.94
2023-05-07T20:10:51.533Z,64.91
2023-05-07T20:13:18.512Z,64.67
2023-05-07T20:15:45.089Z,64.19
2023-05-07T20:18:11.576Z,64.25
2023-05-07T20:20:37.954Z,64.32
2023-05-07T20:23:04.324Z,64.05
2023-05-07T20:25:30.797Z,64.05
2023-05-07T20:27:57.349Z,63.72
2023-05-07T20:30:24.509Z,63.59
2023-05-07T20:32:51.091Z,63.35
2023-05-07T20:35:22.485Z,63.22
2023-05-07T20:37:48.898Z,63.16
2023-05-07T20:40:15.718Z,62.80
2023-05-07T20:42:42.625Z,63.19
2023-05-07T20:45:10.238Z,62.86
2023-05-07T20:47:36.758Z,62.95
2023-05-07T20:50:03.393Z,62.37
2023-05-07T20:52:29.796Z,62.51
2023-05-07T20:54:56.297Z,62.63
2023-05-07T20:57:22.971Z,62.45
2023-05-07T20:59:49.395Z,62.37
2023-05-07T21:02:16.250Z,62.21
2023-05-07T21:04:42.944Z,62.42
2023-05-07T21:07:09.671Z,62.56
2023-05-07T21:09:36.343Z,62.33
2023-05-07T21:12:03.035Z,62.19
2023-05-07T21:14:29.421Z,61.90
2023-05-07T21:16:55.853Z,61.90
2023-05-07T21:19:22.350Z,60.97
2023-05-07T21:21:48.834Z,61.37
2023-05-07T21:24:15.385Z,60.96
2023-05-07T21:26:41.868Z,60.39
2023-05-07T21:29:09.010Z,60.32
2023-05-07T21:31:35.551Z,59.95
2023-05-07T21:34:02.101Z,60.40
2023-05-07T21:36:28.747Z,60.75
2023-05-07T21:38:55.340Z,60.54
2023-05-07T21:41:21.753Z,60.76
2023-05-07T21:43:48.127Z,60.46
2023-05-07T21:46:14.582Z,60.05
2023-05-07T21:48:41.190Z,60.06
2023-05-07T21:51:08.838Z,60.28
2023-05-07T21:53:35.959Z,59.98
2023-05-07T21:56:04.532Z,60.56
2023-05-07T21:58:31.265Z,60.06
2023-05-07T22:00:58.541Z,60.33
2023-05-07T22:03:25.045Z,60.25
2023-05-07T22:05:51.545Z,60.05
2023-05-07T22:08:18.317Z,59.82
2023-05-07T22:10:44.725Z,60.01
2023-05-07T22:13:11.114Z,60.29
2023-05-07T22:15:49.079Z,59.84
2023-05-07T22:18:22.997Z,59.92
2023-05-07T22:20:51.622Z,59.73
2023-05-07T22:23:18.044Z,60.24
2023-05-07T22:25:44.442Z,60.01
2023-05-07T22:28:10.803Z,59.79
2023-05-07T22:30:37.302Z,59.95
2023-05-07T22:33:03.753Z,60.07
2023-05-07T22:35:30.223Z,60.73
2023-05-07T22:37:56.606Z,60.39
2023-05-07T22:40:22.987Z,61.05
2023-05-07T22:42:49.511Z,61.54
2023-05-07T22:45:16.057Z,61.40
2023-05-07T22:47:42.505Z,61.04
2023-05-07T22:50:09.292Z,61.11
2023-05-07T22:52:35.991Z,61.27
2023-05-07T22:55:02.454Z,60.63
2023-05-07T22:57:28.939Z,61.08
2023-05-07T22:59:56.369Z,61.15
2023-05-07T23:02:23.465Z,61.09
2023-05-07T23:04:50.006Z,60.97
2023-05-07T23:07:16.407Z,61.25
2023-05-07T23:09:42.777Z,61.13
2023-05-07T23:12:09.542Z,61.28
2023-05-07T23:14:35.959Z,61.31
2023-05-07T23:17:02.619Z,61.15
2023-05-07T23:19:29.101Z,61.19
2023-05-07T23:21:55.573Z,61.22
2023-05-07T23:24:21.984Z,61.64
2023-05-07T23:26:48.351Z,61.22
2023-05-07T23:29:14.768Z,61.35
2023-05-07T23:31:41.251Z,61.58
2023-05-07T23:34:07.811Z,61.48
2023-05-07T23:36:34.213Z,61.66
2023-05-07T23:39:00.599Z,61.44
2023-05-07T23:41:27.073Z,61.82
2023-05-07T23:43:53.518Z,61.64
2023-05-07T23:46:20.102Z,61.89
2023-05-07T23:48:46.478Z,61.86
2023-05-07T23:51:12.897Z,62.16
2023-05-07T23:53:39.252Z,61.67
2023-05-07T23:56:05.883Z,61.87
2023-05-07T23:58:32.276Z,61.86
